createdAt,value
2019-05-14T00:00:26.472Z,75.02
2019-05-14T00:02:55.856Z,75.68
2019-05-14T00:05:25.227Z,75.68
2019-05-14T00:07:54.890Z,75.97
2019-05-14T00:10:24.601Z,75.99
2019-05-14T00:12:53.972Z,76.32
2019-05-14T00:15:24.314Z,76.62
2019-05-14T00:17:53.899Z,77.43
2019-05-14T00:20:23.263Z,77.43
2019-05-14T00:22:53.855Z,77.58
2019-05-14T00:25:23.297Z,77.92
2019-05-14T00:27:52.986Z,78.26
2019-05-14T00:30:22.369Z,78.26
2019-05-14T00:32:52.199Z,78.51
2019-05-14T00:35:22.222Z,78.58
2019-05-14T00:37:52.213Z,78.70
2019-05-14T00:40:22.406Z,78.84
2019-05-14T00:42:53.261Z,79.25
2019-05-14T00:45:24.007Z,79.25
2019-05-14T00:47:53.358Z,79.27
2019-05-14T00:50:25.597Z,79.64
2019-05-14T00:52:55.274Z,79.93
2019-05-14T00:55:25.234Z,79.93
2019-05-14T00:57:56.434Z,80.16
2019-05-14T01:00:26.051Z,80.18
2019-05-14T01:02:55.428Z,80.13
2019-05-14T01:05:25.003Z,80.08
2019-05-14T01:07:54.354Z,80.17
2019-05-14T01:10:24.016Z,80.24
2019-05-14T01:12:53.183Z,80.48
2019-05-14T01:15:22.565Z,80.57
2019-05-14T01:17:52.921Z,80.64
2019-05-14T01:20:23.649Z,80.67
2019-05-14T01:22:53.149Z,80.68
2019-05-14T01:25:23.712Z,80.93
2019-05-14T01:27:53.262Z,81.24
2019-05-14T01:30:23.521Z,81.36
2019-05-14T01:32:54.068Z,81.47
2019-05-14T01:35:23.438Z,81.51
2019-05-14T01:37:53.101Z,81.56
2019-05-14T01:40:26.287Z,81.57
2019-05-14T01:42:55.637Z,81.59
2019-05-14T01:45:28.422Z,81.72
2019-05-14T01:47:56.244Z,81.71
2019-05-14T01:50:25.604Z,81.77
2019-05-14T01:52:55.233Z,81.92
2019-05-14T01:55:24.637Z,81.97
2019-05-14T01:58:05.451Z,82.07
2019-05-14T02:00:44.378Z,82.04
2019-05-14T02:03:14.061Z,82.40
2019-05-14T02:05:43.885Z,82.61
2019-05-14T02:08:13.438Z,82.66
2019-05-14T02:10:42.826Z,82.78
2019-05-14T02:13:12.504Z,82.93
2019-05-14T02:15:42.999Z,83.11
2019-05-14T02:18:32.366Z,83.07
2019-05-14T02:21:01.936Z,83.07
2019-05-14T02:23:52.223Z,83.52
2019-05-14T02:27:03.559Z,83.65
2019-05-14T02:29:33.208Z,83.74
2019-05-14T02:32:02.586Z,83.88
2019-05-14T02:34:32.236Z,83.91
2019-05-14T02:37:01.621Z,84.04
2019-05-14T02:40:10.241Z,84.27
2019-05-14T02:42:40.360Z,84.53
2019-05-14T02:45:20.421Z,84.82
2019-05-14T02:50:44.372Z,85.21
2019-05-14T02:53:13.720Z,85.33
2019-05-14T02:55:43.379Z,85.57
2019-05-14T02:58:12.765Z,85.57
2019-05-14T03:00:42.292Z,85.38
2019-05-14T03:03:13.634Z,85.44
2019-05-14T03:05:43.336Z,85.63
2019-05-14T03:08:13.022Z,85.90
2019-05-14T03:10:42.492Z,85.96
2019-05-14T03:13:11.869Z,85.99
2019-05-14T03:15:41.421Z,86.16
2019-05-14T03:18:11.383Z,86.43
2019-05-14T03:20:42.439Z,86.55
2019-05-14T03:23:18.182Z,86.54
2019-05-14T03:26:02.240Z,86.44
2019-05-14T03:28:31.617Z,86.33
2019-05-14T03:31:03.997Z,86.22
2019-05-14T03:33:44.091Z,86.27
2019-05-14T03:36:25.946Z,86.24
2019-05-14T03:41:39.373Z,86.51
2019-05-14T03:44:28.917Z,86.53
2019-05-14T03:47:09.965Z,86.61
2019-05-14T03:49:42.454Z,86.63
2019-05-14T03:52:11.834Z,86.67
2019-05-14T03:54:41.492Z,86.65
2019-05-14T03:57:11.151Z,86.64
2019-05-14T03:59:40.864Z,86.65
2019-05-14T04:02:30.835Z,86.58
2019-05-14T04:05:00.484Z,86.56
2019-05-14T04:07:50.330Z,86.58
2019-05-14T04:20:09.548Z,86.46
2019-05-14T04:23:39.568Z,86.53
2019-05-14T04:35:42.579Z,86.95
2019-05-14T04:38:11.952Z,87.08
2019-05-14T04:40:41.609Z,87.09
2019-05-14T04:43:10.992Z,86.98
2019-05-14T04:45:40.666Z,86.88
2019-05-14T04:48:27.164Z,86.81
2019-05-14T04:51:00.775Z,86.75
2019-05-14T04:53:49.944Z,86.72
2019-05-14T04:56:19.776Z,86.77
2019-05-14T04:59:10.683Z,86.83
2019-05-14T05:01:49.298Z,86.96
2019-05-14T05:04:23.879Z,87.15
2019-05-14T05:06:53.560Z,87.33
2019-05-14T05:09:22.963Z,87.43
2019-05-14T05:11:52.623Z,87.66
2019-05-14T05:14:23.872Z,87.64
2019-05-14T05:16:59.730Z,87.54
2019-05-14T05:19:39.082Z,87.63
2019-05-14T05:22:13.013Z,87.98
2019-05-14T05:24:42.663Z,88.36
2019-05-14T05:27:12.054Z,88.36
2019-05-14T05:29:41.747Z,88.15
2019-05-14T05:32:11.417Z,87.91
2019-05-14T05:34:40.874Z,87.51
2019-05-14T05:37:10.250Z,87.17
2019-05-14T05:39:39.761Z,86.71
2019-05-14T05:42:09.430Z,85.92
2019-05-14T05:45:18.962Z,85.06
2019-05-14T05:48:08.344Z,82.69
2019-05-14T05:50:59.164Z,82.69
2019-05-14T05:53:54.067Z,82.45
2019-05-14T05:56:25.625Z,82.45
2019-05-14T05:58:55.015Z,81.94
2019-05-14T06:01:46.475Z,81.58
2019-05-14T06:04:21.169Z,80.99
2019-05-14T06:06:50.856Z,79.38
2019-05-14T06:09:20.234Z,78.47
2019-05-14T06:11:49.842Z,78.73
2019-05-14T06:14:19.510Z,78.73
2019-05-14T06:17:08.746Z,78.52
2019-05-14T06:19:44.927Z,78.52
2019-05-14T06:22:14.290Z,77.42
2019-05-14T06:24:43.929Z,76.75
2019-05-14T06:27:13.285Z,76.77
2019-05-14T06:29:42.904Z,76.91
2019-05-14T06:32:12.262Z,77.35
2019-05-14T06:34:53.898Z,77.14
2019-05-14T06:37:23.280Z,77.14
2019-05-14T06:39:52.931Z,75.57
2019-05-14T06:42:22.291Z,74.80
2019-05-14T06:44:51.905Z,74.22
2019-05-14T06:47:21.556Z,74.91
2019-05-14T06:49:51.088Z,74.51
2019-05-14T06:52:20.455Z,74.39
2019-05-14T06:54:50.019Z,73.89
2019-05-14T06:57:19.383Z,73.53
2019-05-14T06:59:48.907Z,72.29
2019-05-14T07:02:19.301Z,72.52
2019-05-14T07:05:08.618Z,71.87
2019-05-14T07:07:40.469Z,69.88
2019-05-14T07:10:28.800Z,69.56
2019-05-14T07:13:04.487Z,69.55
2019-05-14T07:15:34.051Z,69.89
2019-05-14T07:23:49.029Z,67.82
2019-05-14T07:26:24.515Z,66.00
2019-05-14T07:29:13.082Z,66.00
2019-05-14T07:31:42.467Z,64.94
2019-05-14T07:34:12.009Z,62.38
2019-05-14T07:36:41.384Z,62.41
2019-05-14T07:39:11.333Z,62.60
2019-05-14T07:41:41.004Z,62.44
2019-05-14T07:44:10.373Z,63.07
2019-05-14T07:46:39.789Z,62.38
2019-05-14T07:49:11.782Z,62.75
2019-05-14T07:51:45.456Z,61.64
2019-05-14T07:54:15.060Z,60.03
2019-05-14T07:56:44.427Z,57.56
2019-05-14T07:59:14.097Z,57.48
2019-05-14T08:01:43.462Z,58.02
2019-05-14T08:04:20.005Z,58.66
2019-05-14T08:06:59.300Z,57.03
2019-05-14T08:12:39.156Z,57.25
2019-05-14T08:15:28.197Z,57.10
2019-05-14T08:17:58.580Z,56.27
2019-05-14T08:20:34.110Z,54.81
2019-05-14T08:23:03.475Z,56.32
2019-05-14T08:25:33.015Z,54.59
2019-05-14T08:28:02.636Z,55.19
2019-05-14T08:30:32.260Z,55.32
2019-05-14T08:33:01.665Z,54.22
2019-05-14T08:35:34.035Z,52.99
2019-05-14T08:38:21.308Z,52.65
2019-05-14T08:40:50.989Z,52.61
2019-05-14T08:43:20.379Z,51.91
2019-05-14T08:45:50.723Z,50.84
2019-05-14T08:48:20.227Z,51.01
2019-05-14T08:50:49.592Z,51.89
2019-05-14T08:53:19.122Z,51.48
2019-05-14T08:55:48.957Z,51.00
2019-05-14T08:58:25.470Z,51.74
2019-05-14T09:01:05.232Z,52.12
2019-05-14T09:03:34.613Z,52.12
2019-05-14T09:06:04.292Z,51.58
2019-05-14T09:17:48.457Z,47.01
2019-05-14T09:20:38.147Z,48.78
2019-05-14T09:23:14.306Z,47.95
2019-05-14T09:25:47.001Z,49.02
2019-05-14T09:28:23.742Z,49.23
2019-05-14T09:30:53.396Z,46.22
2019-05-14T09:33:24.375Z,45.38
2019-05-14T09:36:13.584Z,45.06
2019-05-14T09:38:42.111Z,41.64
2019-05-14T09:41:18.399Z,41.89
2019-05-14T09:43:53.362Z,42.03
2019-05-14T09:46:22.743Z,40.41
2019-05-14T09:48:52.405Z,41.35
2019-05-14T09:51:21.805Z,41.52
2019-05-14T09:53:51.427Z,42.64
2019-05-14T09:56:20.803Z,43.05
2019-05-14T09:58:50.474Z,44.66
2019-05-14T10:01:21.562Z,43.79
2019-05-14T10:03:50.951Z,41.69
2019-05-14T10:06:20.972Z,42.03
2019-05-14T10:09:10.621Z,42.25
2019-05-14T10:11:40.000Z,43.50
2019-05-14T10:14:09.565Z,41.66
2019-05-14T10:16:38.985Z,43.06
2019-05-14T10:19:08.498Z,41.77
2019-05-14T10:21:38.863Z,42.68
2019-05-14T10:24:29.136Z,43.43
2019-05-14T10:27:09.266Z,42.59
2019-05-14T10:29:45.141Z,41.66
2019-05-14T10:32:14.572Z,41.95
2019-05-14T10:34:43.928Z,40.04
2019-05-14T10:37:13.490Z,38.65
2019-05-14T10:39:42.849Z,39.76
2019-05-14T10:42:20.055Z,40.80
2019-05-14T10:45:01.834Z,42.04
2019-05-14T10:47:32.834Z,40.81
2019-05-14T10:50:02.526Z,40.16
2019-05-14T10:52:31.905Z,39.93
2019-05-14T10:55:01.560Z,40.00
2019-05-14T10:57:30.936Z,41.07
2019-05-14T11:00:00.587Z,42.37
2019-05-14T11:02:29.964Z,42.50
2019-05-14T11:04:59.621Z,41.88
2019-05-14T11:07:29.310Z,42.54
2019-05-14T11:10:19.667Z,41.83
2019-05-14T11:12:50.662Z,41.65
2019-05-14T11:15:39.686Z,41.55
2019-05-14T11:18:09.031Z,42.08
2019-05-14T11:20:42.147Z,41.84
2019-05-14T11:23:18.297Z,41.88
2019-05-14T11:25:58.144Z,40.17
2019-05-14T11:28:39.277Z,40.11
2019-05-14T11:31:13.614Z,39.74
2019-05-14T11:33:42.993Z,41.91
2019-05-14T11:36:12.654Z,40.81
2019-05-14T11:38:42.157Z,39.94
2019-05-14T11:41:11.705Z,39.43
2019-05-14T11:43:41.085Z,39.54
2019-05-14T11:49:01.041Z,39.19
2019-05-14T11:51:58.411Z,39.37
2019-05-14T11:54:09.478Z,40.01
2019-05-14T11:56:43.828Z,38.73
2019-05-14T12:02:09.748Z,37.98
2019-05-14T12:04:39.330Z,36.63
2019-05-14T12:07:09.592Z,37.55
2019-05-14T12:09:45.034Z,36.11
2019-05-14T12:12:18.825Z,38.17
2019-05-14T12:15:48.594Z,36.92
2019-05-14T12:18:23.260Z,36.62
2019-05-14T12:20:52.986Z,36.91
2019-05-14T12:23:23.985Z,35.41
2019-05-14T12:25:53.640Z,36.26
2019-05-14T12:28:23.072Z,35.22
2019-05-14T12:30:53.017Z,36.92
2019-05-14T12:33:34.522Z,39.59
2019-05-14T12:36:03.898Z,38.25
2019-05-14T12:38:33.274Z,37.03
2019-05-14T12:41:02.970Z,37.05
2019-05-14T12:43:32.358Z,35.46
2019-05-14T12:46:02.022Z,35.44
2019-05-14T12:48:33.002Z,36.03
2019-05-14T12:51:02.387Z,35.40
2019-05-14T12:53:31.830Z,34.59
2019-05-14T12:56:01.497Z,35.57
2019-05-14T12:58:30.892Z,35.85
2019-05-14T13:01:00.277Z,36.00
2019-05-14T13:03:29.889Z,35.92
2019-05-14T13:05:59.532Z,34.10
2019-05-14T13:08:29.078Z,34.28
2019-05-14T13:10:58.766Z,35.94
2019-05-14T13:13:34.911Z,35.72
2019-05-14T13:16:04.655Z,36.29
2019-05-14T13:18:34.051Z,36.95
2019-05-14T13:21:03.404Z,39.13
2019-05-14T13:23:32.969Z,37.58
2019-05-14T13:26:02.651Z,36.39
2019-05-14T13:28:33.927Z,35.32
2019-05-14T13:31:03.283Z,34.91
2019-05-14T13:33:32.966Z,34.78
2019-05-14T13:36:02.350Z,33.78
2019-05-14T13:38:32.251Z,34.59
2019-05-14T13:41:01.940Z,34.14
2019-05-14T13:43:31.303Z,33.76
2019-05-14T13:46:00.986Z,34.67
2019-05-14T13:48:30.342Z,34.13
2019-05-14T13:51:00.013Z,33.61
2019-05-14T13:53:29.753Z,34.58
2019-05-14T13:56:08.840Z,34.52
2019-05-14T13:59:09.087Z,35.00
2019-05-14T14:01:43.045Z,35.00
2019-05-14T14:04:15.183Z,34.75
2019-05-14T14:07:02.866Z,35.63
2019-05-14T14:09:32.254Z,34.72
2019-05-14T14:12:01.933Z,33.61
2019-05-14T14:14:31.632Z,34.11
2019-05-14T14:17:01.248Z,32.58
2019-05-14T14:22:24.654Z,32.58
2019-05-14T14:25:08.899Z,34.87
2019-05-14T14:27:40.766Z,34.87
2019-05-14T14:30:15.272Z,33.41
2019-05-14T14:32:44.893Z,33.61
2019-05-14T14:38:49.453Z,33.69
2019-05-14T14:41:25.260Z,33.89
2019-05-14T14:43:55.372Z,33.31
2019-05-14T14:46:31.581Z,34.55
2019-05-14T14:52:04.081Z,32.68
2019-05-14T14:54:33.454Z,33.78
2019-05-14T14:57:04.737Z,34.39
2019-05-14T14:59:34.193Z,35.31
2019-05-14T15:02:03.606Z,33.84
2019-05-14T15:04:33.129Z,35.15
2019-05-14T15:07:02.819Z,34.94
2019-05-14T15:09:32.161Z,34.27
2019-05-14T15:12:01.537Z,33.89
2019-05-14T15:14:31.204Z,34.67
2019-05-14T15:17:00.570Z,34.45
2019-05-14T15:19:30.187Z,33.39
2019-05-14T15:22:11.904Z,33.91
2019-05-14T15:24:41.252Z,33.74
2019-05-14T15:27:15.045Z,33.83
2019-05-14T15:30:01.390Z,33.95
2019-05-14T15:32:32.389Z,33.79
2019-05-14T15:35:01.746Z,33.83
2019-05-14T15:37:31.595Z,33.83
2019-05-14T15:40:22.517Z,33.40
2019-05-14T15:42:58.985Z,34.04
2019-05-14T15:45:34.568Z,32.74
2019-05-14T15:48:04.493Z,33.67
2019-05-14T15:50:33.858Z,34.02
2019-05-14T15:53:22.834Z,33.18
2019-05-14T15:55:52.450Z,33.18
2019-05-14T15:58:21.897Z,33.88
2019-05-14T16:00:51.558Z,34.88
2019-05-14T16:03:21.200Z,35.48
2019-05-14T16:05:50.878Z,35.02
2019-05-14T16:08:22.697Z,35.26
2019-05-14T16:11:11.308Z,36.09
2019-05-14T16:13:49.379Z,35.34
2019-05-14T16:16:24.289Z,35.42
2019-05-14T16:18:53.657Z,35.37
2019-05-14T16:21:23.221Z,35.28
2019-05-14T16:23:54.505Z,34.78
2019-05-14T16:26:23.865Z,35.15
2019-05-14T16:28:53.549Z,35.13
2019-05-14T16:31:22.728Z,35.35
2019-05-14T16:33:52.396Z,36.79
2019-05-14T16:36:21.754Z,37.09
2019-05-14T16:38:51.510Z,37.17
2019-05-14T16:41:20.889Z,36.69
2019-05-14T16:43:50.604Z,38.21
2019-05-14T16:46:20.276Z,37.74
2019-05-14T16:48:49.965Z,37.52
2019-05-14T16:51:19.588Z,37.65
2019-05-14T16:53:49.505Z,37.91
2019-05-14T16:56:19.329Z,37.22
2019-05-14T16:59:09.395Z,36.23
2019-05-14T17:01:40.396Z,36.28
2019-05-14T17:04:09.778Z,36.79
2019-05-14T17:06:39.266Z,37.47
2019-05-14T17:09:08.972Z,38.12
2019-05-14T17:11:59.483Z,38.67
2019-05-14T17:14:29.406Z,37.66
2019-05-14T17:17:31.625Z,38.69
2019-05-14T17:20:01.297Z,38.69
2019-05-14T17:22:33.828Z,39.27
2019-05-14T17:25:09.311Z,40.19
2019-05-14T17:27:43.747Z,40.22
2019-05-14T17:30:13.395Z,39.91
2019-05-14T17:32:42.752Z,39.77
2019-05-14T17:35:12.545Z,40.09
2019-05-14T17:37:42.194Z,40.05
2019-05-14T17:40:32.483Z,39.90
2019-05-14T17:43:01.851Z,40.01
2019-05-14T17:58:13.152Z,40.42
2019-05-14T18:00:44.910Z,40.76
2019-05-14T18:03:14.352Z,41.01
2019-05-14T18:05:43.735Z,40.91
2019-05-14T18:08:13.394Z,40.96
2019-05-14T18:10:42.771Z,41.25
2019-05-14T18:13:12.442Z,41.66
2019-05-14T18:15:41.827Z,41.67
2019-05-14T18:18:12.833Z,41.54
2019-05-14T18:20:42.519Z,41.36
2019-05-14T18:23:11.981Z,41.51
2019-05-14T18:25:41.443Z,41.79
2019-05-14T18:28:10.827Z,42.05
2019-05-14T18:30:40.495Z,42.08
2019-05-14T18:33:09.867Z,42.37
2019-05-14T18:35:43.977Z,42.18
2019-05-14T18:38:16.015Z,42.36
2019-05-14T18:40:45.691Z,42.20
2019-05-14T18:43:15.133Z,41.81
2019-05-14T18:49:36.999Z,42.27
2019-05-14T18:52:08.939Z,42.66
2019-05-14T18:54:44.326Z,43.04
2019-05-14T18:57:13.837Z,42.79
2019-05-14T18:59:43.566Z,42.90
2019-05-14T19:02:12.932Z,43.10
2019-05-14T19:04:42.627Z,43.46
2019-05-14T19:07:15.430Z,43.50
2019-05-14T19:10:02.177Z,43.61
2019-05-14T19:12:32.181Z,43.66
2019-05-14T19:15:01.933Z,43.88
2019-05-14T19:17:31.596Z,44.18
2019-05-14T19:20:01.520Z,44.15
2019-05-14T19:22:30.975Z,44.41
2019-05-14T19:25:00.361Z,44.67
2019-05-14T19:27:48.601Z,44.52
2019-05-14T19:30:19.178Z,44.74
2019-05-14T19:32:48.926Z,44.90
2019-05-14T19:35:19.154Z,45.35
2019-05-14T19:37:49.049Z,44.93
2019-05-14T19:40:19.118Z,45.04
2019-05-14T19:42:49.840Z,45.34
2019-05-14T19:45:19.285Z,45.43
2019-05-14T19:47:49.447Z,45.24
2019-05-14T19:50:18.987Z,45.58
2019-05-14T19:52:48.881Z,45.71
2019-05-14T19:55:18.885Z,45.89
2019-05-14T19:57:48.978Z,45.99
2019-05-14T20:00:23.841Z,46.31
2019-05-14T20:02:53.518Z,46.43
2019-05-14T20:05:22.952Z,46.48
2019-05-14T20:07:52.789Z,46.87
2019-05-14T20:10:22.173Z,47.10
2019-05-14T20:12:51.840Z,47.28
2019-05-14T20:15:21.215Z,47.39
2019-05-14T20:17:50.882Z,47.70
2019-05-14T20:20:20.261Z,48.45
2019-05-14T20:22:50.163Z,48.31
2019-05-14T20:25:19.875Z,48.77
2019-05-14T20:27:50.208Z,48.35
2019-05-14T20:30:20.058Z,48.52
2019-05-14T20:32:49.674Z,49.08
2019-05-14T20:35:30.937Z,49.11
2019-05-14T20:37:50.160Z,49.66
2019-05-14T20:40:19.542Z,48.39
2019-05-14T20:42:49.368Z,48.73
2019-05-14T20:45:19.246Z,48.56
2019-05-14T20:47:48.618Z,48.54
2019-05-14T20:50:18.291Z,48.99
2019-05-14T20:52:48.479Z,48.91
2019-05-14T20:55:19.061Z,48.92
2019-05-14T20:57:49.509Z,49.09
2019-05-14T21:00:19.209Z,49.89
2019-05-14T21:02:48.872Z,48.24
2019-05-14T21:05:18.867Z,48.24
2019-05-14T21:07:49.304Z,47.69
2019-05-14T21:10:19.263Z,47.69
2019-05-14T21:12:48.951Z,48.38
2019-05-14T21:15:18.365Z,48.62
2019-05-14T21:17:50.377Z,48.79
2019-05-14T21:20:20.417Z,48.77
2019-05-14T21:22:50.235Z,48.76
2019-05-14T21:25:19.615Z,49.06
2019-05-14T21:27:52.039Z,49.27
2019-05-14T21:30:21.910Z,49.42
2019-05-14T21:32:51.683Z,49.61
2019-05-14T21:35:21.311Z,49.75
2019-05-14T21:37:51.503Z,50.02
2019-05-14T21:40:21.022Z,50.21
2019-05-14T21:42:50.385Z,50.38
2019-05-14T21:45:20.126Z,50.61
2019-05-14T21:47:49.515Z,50.79
2019-05-14T21:50:19.146Z,51.04
2019-05-14T21:52:49.549Z,51.17
2019-05-14T21:55:20.140Z,51.20
2019-05-14T21:57:56.516Z,51.39
2019-05-14T22:00:29.470Z,54.55
2019-05-14T22:03:00.593Z,56.55
2019-05-14T22:05:30.154Z,54.28
2019-05-14T22:07:59.575Z,51.17
2019-05-14T22:10:29.124Z,50.20
2019-05-14T22:12:58.576Z,50.17
2019-05-14T22:15:29.260Z,50.56
2019-05-14T22:17:58.909Z,50.74
2019-05-14T22:20:28.976Z,51.02
2019-05-14T22:22:59.103Z,51.19
2019-05-14T22:25:31.223Z,51.44
2019-05-14T22:28:11.516Z,51.65
2019-05-14T22:30:32.177Z,51.89
2019-05-14T22:33:01.559Z,52.04
2019-05-14T22:35:32.131Z,52.27
2019-05-14T22:38:01.806Z,52.63
2019-05-14T22:40:31.243Z,52.80
2019-05-14T22:43:00.627Z,52.82
2019-05-14T22:45:30.161Z,52.97
2019-05-14T22:47:59.843Z,53.10
2019-05-14T22:50:29.574Z,53.00
2019-05-14T22:52:59.251Z,53.18
2019-05-14T22:55:31.185Z,53.35
2019-05-14T22:58:01.240Z,53.33
2019-05-14T23:03:05.773Z,53.51
2019-05-14T23:05:35.243Z,53.64
2019-05-14T23:08:04.627Z,53.77
2019-05-14T23:10:34.306Z,53.98
2019-05-14T23:13:03.747Z,54.14
2019-05-14T23:15:33.255Z,54.35
2019-05-14T23:18:02.635Z,54.53
2019-05-14T23:20:32.299Z,55.09
2019-05-14T23:23:01.683Z,55.39
2019-05-14T23:25:31.272Z,55.68
2019-05-14T23:28:00.683Z,56.01
2019-05-14T23:30:59.707Z,60.42
2019-05-14T23:33:43.164Z,62.39
2019-05-14T23:36:12.528Z,58.18
2019-05-14T23:38:42.203Z,56.07
2019-05-14T23:41:11.588Z,54.74
2019-05-14T23:43:41.287Z,53.95
2019-05-14T23:46:10.671Z,54.06
2019-05-14T23:48:40.353Z,54.37
2019-05-14T23:51:10.011Z,54.87
2019-05-14T23:53:39.502Z,55.22
2019-05-14T23:56:09.120Z,55.69
2019-05-14T23:58:38.506Z,56.11
